createdAt,value
2023-01-01T00:00:19.552Z,7.60
2023-01-01T00:04:06.743Z,5.70
2023-01-01T00:07:33.629Z,5.20
2023-01-01T00:11:04.028Z,5.40
2023-01-01T00:14:30.984Z,5.80
2023-01-01T00:17:57.987Z,6.20
2023-01-01T00:21:24.359Z,6.20
2023-01-01T00:24:52.649Z,5.80
2023-01-01T00:28:19.157Z,5.30
2023-01-01T00:31:46.006Z,7.30
2023-01-01T00:35:15.730Z,6.70
2023-01-01T00:38:46.648Z,7.90
2023-01-01T00:42:15.220Z,6.60
2023-01-01T00:45:47.935Z,7.40
2023-01-01T00:49:19.440Z,7.00
2023-01-01T00:52:56.031Z,7.70
2023-01-01T00:56:23.630Z,7.70
2023-01-01T00:59:53.239Z,7.10
2023-01-01T01:03:29.281Z,7.00
2023-01-01T01:06:58.759Z,7.20
2023-01-01T01:10:26.323Z,6.60
2023-01-01T01:13:56.337Z,6.40
2023-01-01T01:17:23.233Z,7.00
2023-01-01T01:20:55.359Z,6.00
2023-01-01T01:24:21.712Z,5.80
2023-01-01T01:27:48.310Z,6.00
2023-01-01T01:31:15.443Z,5.70
2023-01-01T01:34:41.946Z,6.00
2023-01-01T01:38:08.762Z,5.50
2023-01-01T01:41:46.593Z,6.00
2023-01-01T01:45:16.075Z,6.10
2023-01-01T01:48:46.038Z,5.90
2023-01-01T01:52:13.154Z,6.70
2023-01-01T01:55:42.817Z,7.30
2023-01-01T01:59:10.338Z,7.00
2023-01-01T02:02:41.849Z,7.40
2023-01-01T02:06:09.018Z,6.60
2023-01-01T02:09:35.940Z,6.30
2023-01-01T02:13:03.880Z,6.50
2023-01-01T02:16:38.097Z,6.00
2023-01-01T02:20:20.775Z,5.60
2023-01-01T02:24:28.447Z,5.60
2023-01-01T02:28:02.567Z,5.60
2023-01-01T02:31:33.471Z,5.00
2023-01-01T02:35:24.305Z,5.80
2023-01-01T02:38:56.464Z,4.80
2023-01-01T02:42:25.563Z,5.50
2023-01-01T02:45:52.549Z,4.40
2023-01-01T02:49:21.072Z,4.20
2023-01-01T02:53:00.325Z,3.90
2023-01-01T02:56:34.889Z,3.50
2023-01-01T03:00:27.741Z,4.20
2023-01-01T03:04:05.691Z,3.70
2023-01-01T03:07:41.902Z,3.90
2023-01-01T03:11:12.623Z,3.80
2023-01-01T03:14:47.627Z,3.30
2023-01-01T03:18:19.965Z,3.20
2023-01-01T03:21:51.175Z,3.50
2023-01-01T03:25:23.204Z,3.40
2023-01-01T03:28:55.294Z,3.50
2023-01-01T03:32:45.210Z,3.90
2023-01-01T03:36:15.219Z,3.30
2023-01-01T03:39:46.895Z,3.20
2023-01-01T03:43:16.944Z,3.50
2023-01-01T03:46:45.208Z,3.30
2023-01-01T03:50:13.991Z,2.80
2023-01-01T03:53:43.650Z,3.20
2023-01-01T03:57:15.865Z,3.60
2023-01-01T04:00:48.265Z,3.50
2023-01-01T04:04:17.025Z,3.80
2023-01-01T04:11:29.462Z,3.50
2023-01-01T04:14:56.554Z,4.20
2023-01-01T04:18:23.449Z,3.30
2023-01-01T04:21:49.889Z,3.00
2023-01-01T04:25:17.749Z,3.40
2023-01-01T04:28:44.373Z,3.40
2023-01-01T04:32:10.797Z,3.10
2023-01-01T04:35:37.444Z,3.30
2023-01-01T04:39:04.426Z,3.10
2023-01-01T04:42:30.768Z,3.50
2023-01-01T04:46:00.531Z,3.10
2023-01-01T04:49:27.669Z,3.50
2023-01-01T04:52:55.223Z,3.40
2023-01-01T04:56:23.116Z,3.50
2023-01-01T04:59:49.435Z,4.00
2023-01-01T05:03:15.663Z,3.80
2023-01-01T05:06:42.205Z,3.90
2023-01-01T05:10:10.265Z,4.30
2023-01-01T05:13:37.724Z,3.30
2023-01-01T05:17:04.868Z,3.30
2023-01-01T05:20:31.345Z,2.90
2023-01-01T05:23:59.994Z,3.00
2023-01-01T05:27:26.443Z,3.00
2023-01-01T05:30:53.383Z,3.10
2023-01-01T05:34:19.580Z,3.30
2023-01-01T05:37:45.817Z,3.80
2023-01-01T05:41:14.483Z,3.50
2023-01-01T05:44:40.782Z,3.90
2023-01-01T05:48:08.258Z,3.50
2023-01-01T05:55:01.403Z,3.80
2023-01-01T05:58:28.869Z,3.50
2023-01-01T06:01:55.749Z,3.40
2023-01-01T06:05:22.097Z,3.50
2023-01-01T06:08:53.884Z,3.30
2023-01-01T06:12:20.156Z,3.40
2023-01-01T06:15:54.108Z,4.00
2023-01-01T06:19:20.536Z,3.50
2023-01-01T06:22:47.210Z,3.70
2023-01-01T06:26:15.308Z,3.90
2023-01-01T06:29:41.657Z,3.40
2023-01-01T06:33:08.477Z,3.50
2023-01-01T06:36:35.201Z,3.50
2023-01-01T06:40:01.458Z,4.00
2023-01-01T06:43:28.128Z,3.70
2023-01-01T06:46:55.209Z,3.50
2023-01-01T06:50:22.127Z,3.50
2023-01-01T06:53:48.618Z,3.40
2023-01-01T06:57:16.213Z,3.10
2023-01-01T07:00:43.639Z,3.30
2023-01-01T07:04:13.053Z,3.80
2023-01-01T07:07:43.616Z,3.90
2023-01-01T07:11:14.217Z,3.90
2023-01-01T07:14:42.810Z,3.70
2023-01-01T07:18:10.843Z,3.30
2023-01-01T07:21:43.873Z,3.90
2023-01-01T07:25:15.278Z,3.40
2023-01-01T07:28:43.074Z,3.70
2023-01-01T07:32:18.472Z,3.50
2023-01-01T07:35:46.571Z,3.10
2023-01-01T07:39:13.984Z,3.10
2023-01-01T07:42:41.915Z,3.40
2023-01-01T07:46:12.260Z,3.90
2023-01-01T07:49:39.773Z,4.30
2023-01-01T07:53:07.342Z,4.40
2023-01-01T07:56:35.517Z,4.00
2023-01-01T08:00:03.372Z,4.00
2023-01-01T08:03:39.518Z,5.30
2023-01-01T08:07:06.299Z,4.50
2023-01-01T08:10:33.927Z,4.10
2023-01-01T08:14:00.273Z,4.60
2023-01-01T08:17:28.455Z,4.10
2023-01-01T08:20:55.577Z,4.50
2023-01-01T08:24:22.067Z,3.80
2023-01-01T08:27:48.887Z,4.00
2023-01-01T08:31:15.495Z,4.20
2023-01-01T08:34:42.034Z,4.10
2023-01-01T08:38:08.601Z,5.10
2023-01-01T08:41:35.314Z,4.00
2023-01-01T08:45:01.650Z,4.80
2023-01-01T08:48:30.922Z,4.00
2023-01-01T08:51:58.249Z,4.30
2023-01-01T08:55:25.019Z,4.30
2023-01-01T08:58:51.644Z,4.70
2023-01-01T09:02:20.060Z,4.30
2023-01-01T09:05:47.158Z,4.30
2023-01-01T09:09:13.852Z,4.00
2023-01-01T09:12:40.107Z,4.50
2023-01-01T09:16:07.437Z,4.00
2023-01-01T09:19:34.055Z,4.10
2023-01-01T09:23:05.663Z,4.40
2023-01-01T09:26:32.838Z,3.80
2023-01-01T09:30:00.174Z,3.90
2023-01-01T09:33:29.200Z,4.70
2023-01-01T09:36:55.445Z,4.90
2023-01-01T09:40:30.316Z,4.20
2023-01-01T09:44:04.614Z,3.90
2023-01-01T09:47:36.741Z,3.80
2023-01-01T09:51:14.641Z,3.90
2023-01-01T09:54:47.202Z,3.80
2023-01-01T09:58:17.269Z,3.70
2023-01-01T10:01:51.837Z,3.30
2023-01-01T10:05:33.574Z,3.80
2023-01-01T10:09:18.020Z,4.00
2023-01-01T10:12:51.389Z,4.50
2023-01-01T10:16:30.715Z,3.70
2023-01-01T10:20:02.502Z,3.60
2023-01-01T10:23:33.742Z,3.60
2023-01-01T10:27:03.480Z,3.20
2023-01-01T10:30:31.365Z,2.70
2023-01-01T10:33:58.840Z,3.40
2023-01-01T10:37:25.693Z,4.30
2023-01-01T10:40:55.416Z,3.30
2023-01-01T10:44:29.031Z,3.90
2023-01-01T10:48:27.961Z,4.00
2023-01-01T10:51:55.849Z,3.60
2023-01-01T10:55:27.229Z,3.30
2023-01-01T10:58:55.545Z,3.50
2023-01-01T11:02:24.989Z,3.30
2023-01-01T11:06:12.350Z,4.10
2023-01-01T11:09:39.876Z,4.50
2023-01-01T11:13:16.005Z,4.90
2023-01-01T11:16:47.207Z,4.80
2023-01-01T11:20:23.889Z,4.80
2023-01-01T11:23:54.166Z,4.20
2023-01-01T11:27:26.923Z,4.20
2023-01-01T11:31:07.333Z,4.60
2023-01-01T11:34:37.952Z,4.70
2023-01-01T11:38:06.352Z,4.10
2023-01-01T11:41:45.027Z,5.10
2023-01-01T11:45:26.048Z,3.90
2023-01-01T11:49:03.244Z,4.00
2023-01-01T11:52:59.603Z,4.50
2023-01-01T11:56:50.632Z,3.90
2023-01-01T12:00:25.213Z,4.10
2023-01-01T12:03:56.424Z,3.60
2023-01-01T12:07:29.754Z,3.70
2023-01-01T12:11:00.120Z,3.50
2023-01-01T12:14:34.806Z,3.80
2023-01-01T12:18:07.964Z,4.10
2023-01-01T12:21:37.370Z,3.60
2023-01-01T12:25:05.375Z,3.40
2023-01-01T12:28:46.336Z,4.20
2023-01-01T12:32:22.808Z,3.80
2023-01-01T12:36:10.102Z,3.90
2023-01-01T12:40:21.235Z,3.50
2023-01-01T12:44:06.312Z,3.90
2023-01-01T12:47:43.891Z,3.70
2023-01-01T12:51:24.272Z,3.80
2023-01-01T12:55:25.235Z,4.20
2023-01-01T12:58:58.099Z,3.70
2023-01-01T13:02:35.905Z,4.10
2023-01-01T13:06:09.987Z,4.10
2023-01-01T13:09:40.133Z,4.50
2023-01-01T13:13:08.029Z,3.90
2023-01-01T13:16:53.103Z,4.00
2023-01-01T13:20:26.791Z,3.60
2023-01-01T13:24:19.684Z,3.90
2023-01-01T13:28:16.529Z,4.50
2023-01-01T13:32:09.265Z,3.60
2023-01-01T13:35:37.817Z,3.30
2023-01-01T13:39:05.329Z,3.80
2023-01-01T13:42:52.606Z,4.20
2023-01-01T13:46:20.835Z,4.10
2023-01-01T13:50:13.798Z,3.80
2023-01-01T13:54:09.800Z,4.00
2023-01-01T13:58:16.876Z,3.80
2023-01-01T14:01:55.263Z,4.20
2023-01-01T14:05:29.408Z,4.40
2023-01-01T14:09:07.487Z,4.30
2023-01-01T14:12:40.028Z,4.70
2023-01-01T14:16:14.060Z,4.50
2023-01-01T14:19:43.209Z,4.50
2023-01-01T14:23:16.851Z,4.10
2023-01-01T14:26:46.926Z,4.40
2023-01-01T14:30:23.201Z,4.30
2023-01-01T14:33:57.934Z,4.60
2023-01-01T14:37:26.571Z,4.90
2023-01-01T14:41:05.007Z,5.00
2023-01-01T14:44:41.026Z,5.00
2023-01-01T14:48:19.787Z,5.00
2023-01-01T14:51:59.975Z,5.20
2023-01-01T14:55:34.861Z,5.20
2023-01-01T14:59:11.770Z,4.80
2023-01-01T15:02:45.397Z,5.70
2023-01-01T15:06:25.533Z,6.00
2023-01-01T15:09:54.439Z,5.80
2023-01-01T15:13:31.797Z,5.90
2023-01-01T15:17:08.566Z,5.80
2023-01-01T15:20:38.037Z,6.40
2023-01-01T15:24:13.188Z,6.80
2023-01-01T15:27:46.429Z,6.30
2023-01-01T15:31:17.422Z,5.20
2023-01-01T15:34:50.401Z,6.50
2023-01-01T15:38:22.557Z,6.60
2023-01-01T15:41:53.140Z,6.30
2023-01-01T15:45:30.660Z,6.00
2023-01-01T15:49:02.685Z,5.70
2023-01-01T15:52:37.659Z,6.00
2023-01-01T15:56:14.486Z,6.10
2023-01-01T15:59:47.877Z,6.20
2023-01-01T16:03:22.507Z,7.00
2023-01-01T16:06:56.224Z,6.20
2023-01-01T16:10:25.082Z,6.40
2023-01-01T16:13:51.888Z,6.10
2023-01-01T16:17:21.089Z,6.90
2023-01-01T16:20:48.184Z,6.60
2023-01-01T16:24:16.785Z,6.40
2023-01-01T16:27:44.091Z,6.50
2023-01-01T16:31:15.813Z,6.60
2023-01-01T16:34:43.129Z,7.40
2023-01-01T16:38:11.594Z,7.40
2023-01-01T16:41:43.621Z,7.30
2023-01-01T16:45:18.394Z,7.10
2023-01-01T16:48:46.904Z,7.10
2023-01-01T16:52:13.973Z,7.00
2023-01-01T16:55:54.788Z,7.10
2023-01-01T16:59:31.571Z,8.60
2023-01-01T17:03:01.023Z,8.20
2023-01-01T17:06:28.870Z,9.20
2023-01-01T17:09:56.981Z,7.40
2023-01-01T17:13:23.458Z,7.80
2023-01-01T17:16:52.245Z,6.60
2023-01-01T17:20:19.787Z,6.80
2023-01-01T17:23:46.874Z,6.80
2023-01-01T17:27:13.849Z,7.00
2023-01-01T17:30:48.758Z,7.20
2023-01-01T17:34:20.637Z,6.60
2023-01-01T17:37:47.383Z,7.10
2023-01-01T17:41:18.994Z,7.80
2023-01-01T17:44:45.700Z,8.30
2023-01-01T17:48:11.984Z,7.70
2023-01-01T17:51:47.177Z,8.40
2023-01-01T17:55:14.097Z,7.70
2023-01-01T17:58:41.087Z,8.10
2023-01-01T18:02:12.121Z,8.20
2023-01-01T18:05:38.683Z,7.50
2023-01-01T18:09:08.327Z,8.40
2023-01-01T18:12:36.657Z,7.80
2023-01-01T18:16:04.762Z,8.80
2023-01-01T18:19:32.731Z,9.30
2023-01-01T18:22:59.586Z,8.90
2023-01-01T18:26:27.996Z,9.30
2023-01-01T18:29:56.482Z,9.10
2023-01-01T18:33:23.243Z,9.50
2023-01-01T18:37:02.644Z,10.40
2023-01-01T18:40:35.832Z,9.60
2023-01-01T18:44:03.828Z,11.90
2023-01-01T18:47:32.340Z,11.90
2023-01-01T18:51:02.878Z,12.20
2023-01-01T18:54:33.906Z,10.90
2023-01-01T18:58:06.809Z,9.90
2023-01-01T19:01:35.875Z,10.70
2023-01-01T19:05:19.630Z,10.10
2023-01-01T19:08:45.997Z,11.10
2023-01-01T19:12:20.315Z,9.50
2023-01-01T19:15:51.428Z,9.20
2023-01-01T19:19:23.857Z,9.80
2023-01-01T19:22:51.118Z,10.30
2023-01-01T19:26:25.234Z,9.70
2023-01-01T19:29:53.323Z,10.90
2023-01-01T19:33:20.439Z,11.00
2023-01-01T19:36:47.780Z,10.30
2023-01-01T19:40:15.983Z,10.00
2023-01-01T19:43:43.478Z,10.60
2023-01-01T19:47:10.872Z,10.60
2023-01-01T19:50:39.014Z,12.00
2023-01-01T19:54:07.369Z,11.10
2023-01-01T19:57:34.177Z,10.40
2023-01-01T20:01:00.738Z,11.30
2023-01-01T20:04:27.290Z,10.90
2023-01-01T20:07:55.369Z,10.80
2023-01-01T20:11:22.263Z,10.50
2023-01-01T20:14:50.574Z,10.00
2023-01-01T20:18:17.511Z,8.80
2023-01-01T20:22:04.135Z,9.80
2023-01-01T20:25:30.585Z,9.20
2023-01-01T20:29:17.236Z,9.60
2023-01-01T20:32:43.874Z,10.00
2023-01-01T20:36:25.692Z,9.40
2023-01-01T20:39:52.095Z,10.30
2023-01-01T20:43:19.942Z,10.70
2023-01-01T20:46:48.379Z,9.50
2023-01-01T20:50:15.135Z,10.30
2023-01-01T20:53:41.838Z,11.10
2023-01-01T20:57:11.282Z,11.40
2023-01-01T21:00:37.774Z,10.20
2023-01-01T21:04:04.168Z,10.10
2023-01-01T21:07:30.530Z,10.10
2023-01-01T21:10:57.388Z,10.00
2023-01-01T21:14:27.101Z,9.60
2023-01-01T21:17:53.483Z,9.30
2023-01-01T21:21:23.328Z,9.40
2023-01-01T21:24:53.949Z,10.10
2023-01-01T21:28:21.186Z,10.40
2023-01-01T21:31:47.766Z,9.70
2023-01-01T21:35:23.495Z,9.50
2023-01-01T21:38:51.975Z,10.80
2023-01-01T21:42:26.054Z,11.10
2023-01-01T21:45:53.547Z,12.80
2023-01-01T21:49:24.266Z,10.70
2023-01-01T21:52:52.165Z,11.20
2023-01-01T21:56:30.662Z,12.40
2023-01-01T21:59:59.914Z,12.60
2023-01-01T22:03:30.184Z,11.80
2023-01-01T22:07:01.259Z,12.30
2023-01-01T22:10:32.975Z,11.50
2023-01-01T22:14:00.715Z,11.60
2023-01-01T22:17:35.010Z,11.20
2023-01-01T22:21:03.805Z,12.00
2023-01-01T22:24:37.416Z,12.00
2023-01-01T22:28:18.285Z,13.30
2023-01-01T22:31:49.374Z,15.40
2023-01-01T22:35:24.196Z,15.20
2023-01-01T22:38:51.087Z,12.60
2023-01-01T22:42:19.631Z,12.60
2023-01-01T22:45:47.872Z,11.50
2023-01-01T22:49:20.732Z,11.80
2023-01-01T22:56:13.200Z,12.20
2023-01-01T22:59:40.045Z,11.70
2023-01-01T23:03:06.943Z,11.90
2023-01-01T23:06:35.112Z,11.30
2023-01-01T23:10:03.093Z,11.90
2023-01-01T23:13:47.286Z,12.70
2023-01-01T23:17:14.113Z,10.50
2023-01-01T23:20:40.405Z,10.80
2023-01-01T23:24:13.157Z,11.60
2023-01-01T23:27:41.390Z,10.80
2023-01-01T23:31:12.562Z,10.20
2023-01-01T23:34:39.501Z,10.50
2023-01-01T23:38:06.386Z,10.90
2023-01-01T23:41:35.686Z,11.40
2023-01-01T23:45:02.000Z,10.60
2023-01-01T23:48:29.897Z,9.50
2023-01-01T23:51:57.524Z,8.70
2023-01-01T23:55:23.758Z,9.20
2023-01-01T23:58:50.346Z,9.20
